Time;durP1;ratioP1;P1;durP2;ratioP2;P2;SDS_P1;SDS_P2;PMS_P1;PMS_P2;Temp;Humidity;BMP_temperature;BMP_pressure;BME280_temperature;BME280_humidity;BME280_pressure;Samples;Min_cycle;Max_cycle;Signal;HPM_P1;HPM_P2
2024/02/02 00:01:38;;;;;;;;;;;;;;;2.97;100.00;100217.30;108314;1252;63086;-71
2024/02/02 00:04:05;;;;;;;;;;;;;;;2.95;100.00;100221.20;108307;1250;61238;-72
2024/02/02 00:06:33;;;;;;;;;;;;;;;2.94;100.00;100222.44;108298;1250;74686;-72
2024/02/02 00:09:02;;;;;;;;;;;;;;;2.95;100.00;100219.86;108313;1250;75163;-72
2024/02/02 00:11:31;;;;;;;;;;;;;;;2.95;100.00;100216.91;108282;1250;72731;-73
2024/02/02 00:13:59;;;;;;;;;;;;;;;2.95;100.00;100213.70;108276;1253;61326;-70
2024/02/02 00:16:26;;;;;;;;;;;;;;;2.94;100.00;100222.03;108215;1251;61084;-71
2024/02/02 00:18:54;;;;;;;;;;;;;;;2.94;100.00;100215.25;108348;1250;73711;-71
2024/02/02 00:21:22;;;;;;;;;;;;;;;2.93;100.00;100209.41;108321;1250;72734;-70
2024/02/02 00:23:50;;;;;;;;;;;;;;;2.93;100.00;100209.90;108353;1253;71462;-71
2024/02/02 00:26:18;;;;;;;;;;;;;;;2.93;100.00;100206.89;108362;1250;60874;-71
2024/02/02 00:28:45;;;;;;;;;;;;;;;2.93;100.00;100201.50;108314;1251;60735;-70
2024/02/02 00:31:13;;;;;;;;;;;;;;;2.92;100.00;100205.89;108189;1250;74883;-71
2024/02/02 00:33:41;;;;;;;;;;;;;;;2.89;100.00;100211.89;108306;1250;72601;-71
2024/02/02 00:36:09;;;;;;;;;;;;;;;2.88;100.00;100207.71;108273;1252;72772;-71
2024/02/02 00:38:37;;;;;;;;;;;;;;;2.86;100.00;100204.80;108224;1251;61232;-70
2024/02/02 00:41:04;;;;;;;;;;;;;;;2.84;100.00;100205.42;108214;1250;61074;-70
2024/02/02 00:43:33;;;;;;;;;;;;;;;2.82;100.00;100208.11;108351;1250;74661;-71
2024/02/02 00:46:01;;;;;;;;;;;;;;;2.82;100.00;100200.54;108248;1250;74988;-71
2024/02/02 00:48:29;;;;;;;;;;;;;;;2.83;100.00;100197.40;108293;1250;72047;-71
2024/02/02 00:50:57;;;;;;;;;;;;;;;2.81;100.00;100202.03;108287;1253;61138;-71
2024/02/02 00:53:25;;;;;;;;;;;;;;;2.78;100.00;100192.08;108373;1250;61093;-71
2024/02/02 00:55:53;;;;;;;;;;;;;;;2.78;100.00;100188.38;108346;1251;74643;-72
2024/02/02 00:58:21;;;;;;;;;;;;;;;2.76;100.00;100185.36;108357;1250;72916;-71
2024/02/02 01:00:49;;;;;;;;;;;;;;;2.76;100.00;100188.20;108264;1250;71709;-70
2024/02/02 01:03:17;;;;;;;;;;;;;;;2.79;100.00;100189.72;108319;1250;60962;-71
2024/02/02 01:05:45;;;;;;;;;;;;;;;2.78;100.00;100189.68;108289;1250;61074;-72
2024/02/02 01:08:12;;;;;;;;;;;;;;;2.76;100.00;100192.54;108281;1250;74675;-72
2024/02/02 01:10:40;;;;;;;;;;;;;;;2.75;100.00;100198.87;108295;1250;72896;-71
2024/02/02 01:13:08;;;;;;;;;;;;;;;2.73;100.00;100186.67;108300;1250;72686;-70
2024/02/02 01:15:35;;;;;;;;;;;;;;;2.71;100.00;100193.52;108342;1250;61263;-72
2024/02/02 01:18:07;;;;;;;;;;;;;;;2.70;100.00;100190.66;108363;1250;61861;-69
2024/02/02 01:20:35;;;;;;;;;;;;;;;2.68;100.00;100193.20;108304;1250;73380;-70
2024/02/02 01:23:03;;;;;;;;;;;;;;;2.64;100.00;100190.60;108320;1256;71426;-70
2024/02/02 01:25:30;;;;;;;;;;;;;;;2.64;100.00;100185.94;108342;1251;71318;-70
2024/02/02 01:27:58;;;;;;;;;;;;;;;2.61;100.00;100190.86;108231;1250;61208;-69
2024/02/02 01:30:29;;;;;;;;;;;;;;;2.57;100.00;100199.33;108292;1250;61375;-72
2024/02/02 01:32:57;;;;;;;;;;;;;;;2.55;100.00;100198.11;108353;1250;73959;-75
2024/02/02 01:35:26;;;;;;;;;;;;;;;2.54;100.00;100193.35;108244;1250;72579;-73
2024/02/02 01:37:58;;;;;;;;;;;;;;;2.54;100.00;100195.38;108303;1250;74909;-69
2024/02/02 01:40:25;;;;;;;;;;;;;;;2.52;100.00;100192.10;108334;1252;61225;-71
2024/02/02 01:42:53;;;;;;;;;;;;;;;2.49;100.00;100194.70;108309;1250;61002;-69
2024/02/02 01:45:21;;;;;;;;;;;;;;;2.49;100.00;100192.89;108147;1251;73351;-70
2024/02/02 01:47:48;;;;;;;;;;;;;;;2.47;100.00;100193.34;108241;1250;72710;-72
2024/02/02 01:50:16;;;;;;;;;;;;;;;2.46;100.00;100198.73;108308;1251;72899;-71
2024/02/02 01:52:44;;;;;;;;;;;;;;;2.47;100.00;100198.42;108361;1256;61166;-71
2024/02/02 01:55:13;;;;;;;;;;;;;;;2.46;100.00;100201.05;108361;1250;61118;-71
2024/02/02 01:57:41;;;;;;;;;;;;;;;2.45;100.00;100204.95;108339;1256;74656;-71
2024/02/02 02:00:11;;;;;;;;;;;;;;;2.47;100.00;100207.21;108345;1250;72744;-72
2024/02/02 02:02:38;;;;;;;;;;;;;;;2.46;100.00;100205.64;108330;1256;72629;-71
2024/02/02 02:05:06;;;;;;;;;;;;;;;2.43;100.00;100211.30;108343;1252;61192;-72
2024/02/02 02:07:34;;;;;;;;;;;;;;;2.41;100.00;100203.81;108404;1250;61366;-72
2024/02/02 02:10:04;;;;;;;;;;;;;;;2.41;100.00;100201.41;108341;1250;73189;-71
2024/02/02 02:12:33;;;;;;;;;;;;;;;2.39;100.00;100202.84;108353;1250;71279;-71
2024/02/02 02:15:06;;;;;;;;;;;;;;;2.39;100.00;100207.22;108346;1251;72694;-72
2024/02/02 02:17:34;;;;;;;;;;;;;;;2.38;100.00;100208.65;108376;1251;63322;-72
2024/02/02 02:20:10;;;;;;;;;;;;;;;2.41;100.00;100215.44;108326;1250;61122;-70
2024/02/02 02:22:42;;;;;;;;;;;;;;;2.45;100.00;100219.76;108402;1250;74751;-70
2024/02/02 02:25:10;;;;;;;;;;;;;;;2.46;100.00;100229.27;108341;1250;71485;-69
2024/02/02 02:27:38;;;;;;;;;;;;;;;2.55;100.00;100222.13;108355;1256;72686;-72
2024/02/02 02:30:06;;;;;;;;;;;;;;;2.60;100.00;100226.52;108374;1250;63001;-71
2024/02/02 02:32:34;;;;;;;;;;;;;;;2.66;100.00;100225.41;108323;1250;61081;-73
2024/02/02 02:35:02;;;;;;;;;;;;;;;2.70;100.00;100221.10;108269;1250;74661;-72
2024/02/02 02:37:30;;;;;;;;;;;;;;;2.73;100.00;100222.59;108601;1250;71657;-72
2024/02/02 02:39:57;;;;;;;;;;;;;;;2.77;100.00;100227.64;108212;1250;71696;-71
2024/02/02 02:42:25;;;;;;;;;;;;;;;2.82;100.00;100226.23;108266;1250;60779;-71
2024/02/02 02:44:53;;;;;;;;;;;;;;;2.86;100.00;100222.86;108290;1250;61116;-72
2024/02/02 02:47:21;;;;;;;;;;;;;;;2.89;100.00;100230.67;108269;1256;74684;-71
2024/02/02 02:49:48;;;;;;;;;;;;;;;2.91;100.00;100228.23;108332;1250;71734;-70
2024/02/02 02:52:16;;;;;;;;;;;;;;;2.89;100.00;100234.19;108266;1253;72109;-72
2024/02/02 02:54:44;;;;;;;;;;;;;;;2.88;100.00;100227.62;108310;1250;61232;-73
2024/02/02 02:57:12;;;;;;;;;;;;;;;2.88;100.00;100225.23;108323;1250;61193;-72
2024/02/02 02:59:39;;;;;;;;;;;;;;;2.87;100.00;100226.67;108279;1250;73282;-76
2024/02/02 03:02:07;;;;;;;;;;;;;;;2.86;100.00;100225.30;108293;1250;72864;-73
2024/02/02 03:04:35;;;;;;;;;;;;;;;2.89;100.00;100231.28;108242;1251;71426;-71
2024/02/02 03:07:04;;;;;;;;;;;;;;;2.90;100.00;100235.98;108205;1253;59638;-71
2024/02/02 03:09:32;;;;;;;;;;;;;;;2.92;100.00;100233.08;108355;1250;61186;-71
2024/02/02 03:12:00;;;;;;;;;;;;;;;2.93;100.00;100233.52;108291;1250;74835;-71
2024/02/02 03:14:28;;;;;;;;;;;;;;;2.95;100.00;100235.91;108306;1250;72627;-71
2024/02/02 03:16:56;;;;;;;;;;;;;;;2.98;100.00;100237.66;108321;1256;71624;-71
2024/02/02 03:19:23;;;;;;;;;;;;;;;3.02;100.00;100231.63;108301;1251;63101;-70
2024/02/02 03:21:51;;;;;;;;;;;;;;;3.07;100.00;100234.39;108338;1250;61382;-71
2024/02/02 03:24:19;;;;;;;;;;;;;;;3.12;100.00;100233.02;108288;1250;74738;-71
2024/02/02 03:27:01;;;;;;;;;;;;;;;3.15;100.00;100242.65;108225;1251;72374;-72
2024/02/02 03:30:16;;;;;;;;;;;;;;;3.19;100.00;100236.94;108192;1253;72718;-71
2024/02/02 03:32:44;;;;;;;;;;;;;;;3.18;100.00;100233.69;108370;1251;61323;-71
2024/02/02 03:35:13;;;;;;;;;;;;;;;3.15;100.00;100226.38;108338;1250;61971;-70
2024/02/02 03:37:41;;;;;;;;;;;;;;;3.13;100.00;100229.67;108343;1250;74683;-71
2024/02/02 03:40:09;;;;;;;;;;;;;;;3.09;100.00;100227.45;108204;1250;75324;-71
2024/02/02 03:42:36;;;;;;;;;;;;;;;3.06;100.00;100233.27;108267;1251;72729;-71
2024/02/02 03:45:04;;;;;;;;;;;;;;;3.06;100.00;100238.54;108307;1250;59941;-71
2024/02/02 03:47:33;;;;;;;;;;;;;;;3.05;100.00;100241.89;108311;1250;62742;-72
2024/02/02 03:50:01;;;;;;;;;;;;;;;3.01;100.00;100240.13;108210;1250;74424;-71
2024/02/02 03:52:29;;;;;;;;;;;;;;;2.98;100.00;100246.19;108333;1250;72843;-72
2024/02/02 03:54:56;;;;;;;;;;;;;;;2.97;100.00;100250.87;108325;1252;71389;-71
2024/02/02 03:57:24;;;;;;;;;;;;;;;2.94;100.00;100245.29;108319;1256;61114;-72
2024/02/02 03:59:52;;;;;;;;;;;;;;;2.92;100.00;100253.13;108338;1250;61995;-72
2024/02/02 04:02:20;;;;;;;;;;;;;;;2.89;100.00;100256.69;108397;1250;74701;-72
2024/02/02 04:04:48;;;;;;;;;;;;;;;2.90;100.00;100259.48;108329;1250;71497;-73
2024/02/02 04:07:15;;;;;;;;;;;;;;;2.91;100.00;100268.80;108340;1250;73025;-72
2024/02/02 04:09:43;;;;;;;;;;;;;;;2.90;100.00;100266.79;108311;1253;61218;-72
2024/02/02 04:12:11;;;;;;;;;;;;;;;2.88;100.00;100266.44;108377;1250;59813;-72
2024/02/02 04:14:38;;;;;;;;;;;;;;;2.86;100.00;100264.58;108310;1250;74672;-71
2024/02/02 04:17:06;;;;;;;;;;;;;;;2.82;100.00;100278.29;108406;1250;72899;-71
2024/02/02 04:19:34;;;;;;;;;;;;;;;2.77;100.00;100278.96;108409;1253;73740;-72
2024/02/02 04:22:03;;;;;;;;;;;;;;;2.72;100.00;100287.95;108352;1250;61185;-73
2024/02/02 04:24:30;;;;;;;;;;;;;;;2.71;100.00;100289.66;108351;1250;60980;-75
2024/02/02 04:26:58;;;;;;;;;;;;;;;2.72;100.00;100289.36;108338;1250;74138;-74
2024/02/02 04:29:26;;;;;;;;;;;;;;;2.66;100.00;100293.19;108274;1250;71729;-71
2024/02/02 04:31:54;;;;;;;;;;;;;;;2.66;100.00;100291.88;108261;1250;71407;-70
2024/02/02 04:34:21;;;;;;;;;;;;;;;2.66;100.00;100299.60;108372;1250;61605;-70
2024/02/02 04:36:49;;;;;;;;;;;;;;;2.62;100.00;100304.84;108343;1250;61244;-70
2024/02/02 04:39:17;;;;;;;;;;;;;;;2.59;100.00;100306.60;108366;1250;73405;-72
2024/02/02 04:41:45;;;;;;;;;;;;;;;2.58;100.00;100308.11;108428;1250;71456;-72
2024/02/02 04:44:13;;;;;;;;;;;;;;;2.56;100.00;100312.41;108412;1256;72701;-72
2024/02/02 04:46:40;;;;;;;;;;;;;;;2.53;100.00;100316.73;108336;1252;61031;-71
2024/02/02 04:49:08;;;;;;;;;;;;;;;2.53;100.00;100319.20;108276;1256;60403;-71
2024/02/02 04:51:36;;;;;;;;;;;;;;;2.50;100.00;100323.31;108366;1250;77468;-71
2024/02/02 04:54:04;;;;;;;;;;;;;;;2.50;100.00;100325.42;108368;1250;71694;-71
2024/02/02 04:56:32;;;;;;;;;;;;;;;2.52;100.00;100328.86;108298;1251;71118;-71
2024/02/02 04:58:59;;;;;;;;;;;;;;;2.53;100.00;100330.08;108290;1253;61089;-71
2024/02/02 05:01:27;;;;;;;;;;;;;;;2.53;99.68;100335.40;108334;1250;61577;-71
2024/02/02 05:03:54;;;;;;;;;;;;;;;2.54;98.18;100339.08;108183;1250;74150;-70
2024/02/02 05:06:22;;;;;;;;;;;;;;;2.56;97.05;100340.04;108326;1250;72929;-70
2024/02/02 05:08:51;;;;;;;;;;;;;;;2.54;96.14;100338.60;108302;1250;72157;-71
2024/02/02 05:11:18;;;;;;;;;;;;;;;2.52;95.29;100338.32;108403;1250;60900;-71
2024/02/02 05:13:46;;;;;;;;;;;;;;;2.50;94.27;100347.13;108378;1250;59972;-71
2024/02/02 05:16:14;;;;;;;;;;;;;;;2.49;93.88;100344.89;108316;1252;74826;-71
2024/02/02 05:18:42;;;;;;;;;;;;;;;2.47;93.49;100347.58;108310;1253;71197;-73
2024/02/02 05:21:10;;;;;;;;;;;;;;;2.44;92.83;100352.70;108317;1250;73200;-74
2024/02/02 05:23:38;;;;;;;;;;;;;;;2.43;92.26;100358.05;108300;1252;61132;-71
2024/02/02 05:26:17;;;;;;;;;;;;;;;2.42;91.45;100360.82;108299;1250;61011;-74
2024/02/02 05:28:44;;;;;;;;;;;;;;;2.40;90.89;100363.50;108323;1250;74726;-69
2024/02/02 05:31:12;;;;;;;;;;;;;;;2.41;89.80;100368.17;108350;1250;71425;-71
2024/02/02 05:33:42;;;;;;;;;;;;;;;2.43;88.66;100372.08;108289;1251;72682;-71
2024/02/02 05:36:12;;;;;;;;;;;;;;;2.44;87.80;100379.06;108281;1250;61469;-69
2024/02/02 05:38:40;;;;;;;;;;;;;;;2.45;86.69;100383.16;108276;1253;61082;-72
2024/02/02 05:41:08;;;;;;;;;;;;;;;2.48;85.66;100390.81;108432;1256;73456;-71
2024/02/02 05:43:36;;;;;;;;;;;;;;;2.53;85.00;100397.00;108356;1250;72584;-72
2024/02/02 05:46:07;;;;;;;;;;;;;;;2.56;84.10;100399.13;108386;1253;72552;-71
2024/02/02 05:48:35;;;;;;;;;;;;;;;2.59;83.65;100402.70;108332;1250;61132;-71
2024/02/02 05:51:03;;;;;;;;;;;;;;;2.63;82.72;100407.20;108327;1250;61946;-70
2024/02/02 05:53:31;;;;;;;;;;;;;;;2.67;81.74;100412.77;108437;1250;74652;-73
2024/02/02 05:55:58;;;;;;;;;;;;;;;2.71;81.08;100412.34;107903;1250;533799;-72
2024/02/02 05:58:27;;;;;;;;;;;;;;;2.77;80.59;100417.93;108326;1253;72738;-71
2024/02/02 06:00:55;;;;;;;;;;;;;;;2.82;80.18;100422.95;108338;1250;59844;-72
2024/02/02 06:03:23;;;;;;;;;;;;;;;2.87;79.26;100417.08;108364;1252;61085;-71
2024/02/02 06:05:51;;;;;;;;;;;;;;;2.92;78.50;100416.41;108344;1250;74654;-70
2024/02/02 06:08:19;;;;;;;;;;;;;;;2.95;77.73;100415.39;108324;1250;72886;-70
2024/02/02 06:10:47;;;;;;;;;;;;;;;2.99;76.90;100416.73;108336;1253;70873;-69
2024/02/02 06:13:18;;;;;;;;;;;;;;;3.02;76.01;100415.67;108340;1253;61094;-72
2024/02/02 06:15:46;;;;;;;;;;;;;;;3.06;75.51;100423.77;108339;1252;61351;-71
2024/02/02 06:18:16;;;;;;;;;;;;;;;3.07;74.98;100425.29;108390;1250;74627;-73
2024/02/02 06:20:45;;;;;;;;;;;;;;;3.09;74.55;100430.29;108361;1250;72464;-71
2024/02/02 06:23:12;;;;;;;;;;;;;;;3.11;74.23;100430.21;108384;1253;74837;-72
2024/02/02 06:25:40;;;;;;;;;;;;;;;3.12;74.23;100435.71;108333;1253;61091;-72
2024/02/02 06:28:09;;;;;;;;;;;;;;;3.13;73.87;100436.16;108360;1250;61586;-72
2024/02/02 06:30:40;;;;;;;;;;;;;;;3.12;73.93;100437.75;108383;1250;74647;-71
2024/02/02 06:33:07;;;;;;;;;;;;;;;3.10;73.60;100438.77;108345;1250;72909;-72
2024/02/02 06:35:35;;;;;;;;;;;;;;;3.08;73.56;100439.83;108353;1250;71400;-70
2024/02/02 06:38:03;;;;;;;;;;;;;;;3.08;73.63;100442.40;108353;1252;61111;-71
2024/02/02 06:40:31;;;;;;;;;;;;;;;3.07;73.29;100448.63;108319;1250;61286;-72
2024/02/02 06:42:59;;;;;;;;;;;;;;;3.09;73.13;100445.88;108392;1250;74640;-71
2024/02/02 06:45:27;;;;;;;;;;;;;;;3.10;72.87;100446.83;108327;1250;71625;-71
2024/02/02 06:47:55;;;;;;;;;;;;;;;3.12;72.74;100448.02;108383;1250;71139;-70
2024/02/02 06:50:23;;;;;;;;;;;;;;;3.14;72.27;100450.05;108343;1250;61100;-71
2024/02/02 06:52:51;;;;;;;;;;;;;;;3.16;72.12;100454.29;108290;1250;61075;-71
2024/02/02 06:55:18;;;;;;;;;;;;;;;3.13;71.78;100454.69;108360;1250;73392;-70
2024/02/02 06:57:46;;;;;;;;;;;;;;;3.16;71.43;100453.89;108311;1256;72631;-70
2024/02/02 07:00:16;;;;;;;;;;;;;;;3.21;71.19;100456.06;108356;1250;72624;-70
2024/02/02 07:02:44;;;;;;;;;;;;;;;3.25;70.80;100453.84;108326;1250;61221;-72
2024/02/02 07:05:12;;;;;;;;;;;;;;;3.30;70.74;100462.39;108256;1250;60571;-71
2024/02/02 07:07:40;;;;;;;;;;;;;;;3.32;70.50;100459.57;108289;1250;73459;-70
2024/02/02 07:10:16;;;;;;;;;;;;;;;3.34;70.39;100455.79;108302;1250;72696;-71
2024/02/02 07:12:43;;;;;;;;;;;;;;;3.38;70.27;100460.16;108260;1251;72660;-69
2024/02/02 07:15:15;;;;;;;;;;;;;;;3.43;69.94;100462.76;108317;1254;61126;-71
2024/02/02 07:17:44;;;;;;;;;;;;;;;3.47;69.48;100465.41;108265;1250;61171;-69
2024/02/02 07:20:21;;;;;;;;;;;;;;;3.53;69.14;100464.05;108312;1250;74914;-73
2024/02/02 07:22:52;;;;;;;;;;;;;;;3.60;68.92;100463.15;108347;1250;70892;-71
2024/02/02 07:25:21;;;;;;;;;;;;;;;3.64;68.46;100462.19;108286;1250;72732;-70
2024/02/02 07:27:52;;;;;;;;;;;;;;;3.70;68.00;100464.14;108272;1254;61087;-71
2024/02/02 07:30:38;;;;;;;;;;;;;;;3.78;68.00;100465.95;108144;1258;61758;-70
2024/02/02 07:33:17;;;;;;;;;;;;;;;3.84;67.60;100467.17;108354;1256;73881;-69
2024/02/02 07:35:46;;;;;;;;;;;;;;;3.90;67.37;100474.77;108349;1250;71914;-69
2024/02/02 07:38:24;;;;;;;;;;;;;;;3.96;67.41;100477.08;108344;1253;72121;-71
2024/02/02 07:41:04;;;;;;;;;;;;;;;4.04;66.94;100477.64;108278;1253;61205;-69
2024/02/02 07:43:35;;;;;;;;;;;;;;;4.08;66.70;100480.44;108245;1250;60785;-70
2024/02/02 07:46:03;;;;;;;;;;;;;;;4.08;66.50;100482.03;108268;1251;75861;-70
2024/02/02 07:48:38;;;;;;;;;;;;;;;4.10;66.64;100481.77;108291;1250;73050;-68
2024/02/02 07:51:07;;;;;;;;;;;;;;;4.12;66.53;100478.14;108280;1253;71391;-69
2024/02/02 07:53:35;;;;;;;;;;;;;;;4.13;66.51;100497.80;108227;1256;61908;-68
2024/02/02 07:56:03;;;;;;;;;;;;;;;4.14;66.28;100496.29;108298;1250;61313;-69
2024/02/02 07:58:30;;;;;;;;;;;;;;;4.15;66.41;100486.66;108340;1251;74689;-69
2024/02/02 08:00:58;;;;;;;;;;;;;;;4.14;66.39;100493.61;108318;1250;71478;-69
2024/02/02 08:03:26;;;;;;;;;;;;;;;4.13;66.66;100489.18;108285;1256;74788;-70
2024/02/02 08:05:54;;;;;;;;;;;;;;;4.14;66.77;100497.39;108286;1256;61081;-69
2024/02/02 08:08:22;;;;;;;;;;;;;;;4.15;66.80;100498.78;108322;1250;61087;-72
2024/02/02 08:10:50;;;;;;;;;;;;;;;4.15;66.50;100495.39;108260;1256;74655;-68
2024/02/02 08:13:19;;;;;;;;;;;;;;;4.16;66.47;100498.27;108284;1250;71423;-69
2024/02/02 08:15:46;;;;;;;;;;;;;;;4.19;66.25;100493.41;108218;1253;71700;-67
2024/02/02 08:18:14;;;;;;;;;;;;;;;4.22;65.97;100493.17;108356;1250;61146;-69
2024/02/02 08:20:42;;;;;;;;;;;;;;;4.22;65.82;100493.39;108342;1250;61139;-68
2024/02/02 08:23:10;;;;;;;;;;;;;;;4.20;65.79;100502.95;108326;1250;74760;-70
2024/02/02 08:25:38;;;;;;;;;;;;;;;4.25;66.11;100497.22;108259;1250;72939;-69
2024/02/02 08:28:05;;;;;;;;;;;;;;;4.34;66.34;100494.33;108289;1253;71619;-69
2024/02/02 08:30:33;;;;;;;;;;;;;;;4.43;66.27;100510.45;108366;1250;61090;-70
2024/02/02 08:33:01;;;;;;;;;;;;;;;4.51;65.60;100507.45;108207;1250;61119;-70
2024/02/02 08:35:29;;;;;;;;;;;;;;;4.53;64.98;100509.73;85504;1256;10002325;-69
2024/02/02 08:37:57;;;;;;;;;;;;;;;4.54;64.52;100506.89;108122;1251;61228;-70
2024/02/02 08:40:43;;;;;;;;;;;;;;;4.58;64.26;100501.92;108177;1251;75291;-69
2024/02/02 08:43:15;;;;;;;;;;;;;;;4.64;63.29;100506.63;108079;1250;73007;-69
2024/02/02 08:45:43;;;;;;;;;;;;;;;4.73;62.69;100498.32;108136;1256;61083;-71
2024/02/02 08:48:23;;;;;;;;;;;;;;;4.79;62.30;100502.09;108163;1253;61129;-70
2024/02/02 08:50:55;;;;;;;;;;;;;;;4.83;61.98;100497.17;108092;1256;74129;-70
2024/02/02 08:53:22;;;;;;;;;;;;;;;4.87;61.43;100496.78;108147;1250;72050;-70
2024/02/02 08:55:50;;;;;;;;;;;;;;;4.93;61.03;100502.09;108907;1251;72679;-67
2024/02/02 08:58:27;;;;;;;;;;;;;;;4.98;60.50;100502.20;108126;1250;61107;-68
2024/02/02 09:00:55;;;;;;;;;;;;;;;4.97;59.41;100493.58;108211;1250;61117;-69
2024/02/02 09:03:29;;;;;;;;;;;;;;;4.93;58.31;100500.30;108242;1256;73693;-68
2024/02/02 09:05:57;;;;;;;;;;;;;;;4.90;58.07;100499.14;108109;1253;72866;-68
2024/02/02 09:08:33;;;;;;;;;;;;;;;4.90;58.04;100500.65;108099;1257;72798;-70
2024/02/02 09:11:02;;;;;;;;;;;;;;;4.89;57.91;100501.80;108014;1252;61135;-69
2024/02/02 09:13:30;;;;;;;;;;;;;;;4.85;57.88;100502.83;108077;1253;61214;-69
2024/02/02 09:15:58;;;;;;;;;;;;;;;4.82;58.01;100504.21;108131;1251;73415;-68
2024/02/02 09:18:33;;;;;;;;;;;;;;;4.75;57.96;100507.16;108021;1251;75818;-70
2024/02/02 09:21:01;;;;;;;;;;;;;;;4.67;58.10;100503.27;108302;1256;72833;-70
2024/02/02 09:23:30;;;;;;;;;;;;;;;4.64;58.54;100496.13;108479;1250;61093;-70
2024/02/02 09:25:58;;;;;;;;;;;;;;;4.62;58.91;100505.71;108193;1250;61395;-70
2024/02/02 09:28:27;;;;;;;;;;;;;;;4.58;59.15;100502.13;108124;1253;73678;-70
2024/02/02 09:30:58;;;;;;;;;;;;;;;4.58;59.51;100491.58;108155;1251;72185;-70
2024/02/02 09:33:35;;;;;;;;;;;;;;;4.62;59.81;100494.08;108112;1257;74828;-69
2024/02/02 09:36:03;;;;;;;;;;;;;;;4.64;59.72;100494.20;108199;1253;61240;-70
2024/02/02 09:38:31;;;;;;;;;;;;;;;4.64;59.58;100494.26;108094;1251;61236;-70
2024/02/02 09:41:13;;;;;;;;;;;;;;;4.60;59.52;100495.59;108149;1250;74742;-69
2024/02/02 09:43:41;;;;;;;;;;;;;;;4.61;59.67;100490.35;108145;1250;74739;-70
2024/02/02 09:46:20;;;;;;;;;;;;;;;4.62;59.07;100496.89;108306;1251;72810;-70
2024/02/02 09:48:57;;;;;;;;;;;;;;;4.65;58.43;100496.48;108334;1250;61068;-69
2024/02/02 09:51:57;;;;;;;;;;;;;;;4.65;57.96;100495.02;108265;1251;61081;-68
2024/02/02 09:54:25;;;;;;;;;;;;;;;4.68;57.97;100499.87;108286;1253;74803;-70
2024/02/02 09:56:56;;;;;;;;;;;;;;;4.70;57.96;100502.90;108585;1250;71794;-70
2024/02/02 09:59:30;;;;;;;;;;;;;;;4.72;57.43;100513.11;108367;1256;73024;-70
2024/02/02 10:02:07;;;;;;;;;;;;;;;4.72;56.45;100507.02;108307;1250;61297;-68
2024/02/02 10:04:39;;;;;;;;;;;;;;;4.76;56.55;100504.08;108328;1250;59288;-68
2024/02/02 10:07:07;;;;;;;;;;;;;;;4.80;56.34;100513.71;108263;1250;76851;-69
2024/02/02 10:09:35;;;;;;;;;;;;;;;4.82;56.16;100513.57;108337;1250;71476;-68
2024/02/02 10:12:06;;;;;;;;;;;;;;;4.85;56.14;100515.29;108355;1251;72968;-71
2024/02/02 10:14:42;;;;;;;;;;;;;;;4.87;56.17;100512.98;108302;1253;61109;-69
2024/02/02 10:17:21;;;;;;;;;;;;;;;4.92;56.25;100512.15;108260;1250;61087;-67
2024/02/02 10:20:18;;;;;;;;;;;;;;;4.95;55.98;100517.17;108313;1252;76680;-68
2024/02/02 10:22:52;;;;;;;;;;;;;;;4.97;55.92;100513.45;108181;1250;72546;-69
2024/02/02 10:25:32;;;;;;;;;;;;;;;4.98;56.06;100520.33;108253;1250;72741;-69
2024/02/02 10:28:00;;;;;;;;;;;;;;;5.00;56.20;100519.48;108494;1251;61135;-68
2024/02/02 10:30:47;;;;;;;;;;;;;;;5.04;56.14;100516.90;108299;1250;61215;-70
2024/02/02 10:33:20;;;;;;;;;;;;;;;5.09;55.35;100514.77;108365;1251;74870;-69
2024/02/02 10:36:02;;;;;;;;;;;;;;;5.16;54.94;100520.16;108345;1251;72947;-69
2024/02/02 10:38:30;;;;;;;;;;;;;;;5.20;54.76;100517.25;108250;1251;71538;-70
2024/02/02 10:41:07;;;;;;;;;;;;;;;5.23;54.51;100520.44;108294;1256;60388;-70
2024/02/02 10:43:41;;;;;;;;;;;;;;;5.21;54.16;100522.78;108300;1251;60975;-68
2024/02/02 10:46:12;;;;;;;;;;;;;;;5.18;54.09;100526.04;108328;1250;76477;-68
2024/02/02 10:48:44;;;;;;;;;;;;;;;5.14;53.58;100524.20;108378;1250;72890;-69
2024/02/02 10:51:36;;;;;;;;;;;;;;;5.09;52.52;100524.43;108343;1253;72658;-68
2024/02/02 10:54:22;;;;;;;;;;;;;;;5.07;51.79;100520.71;108256;1252;61215;-69
2024/02/02 10:57:29;;;;;;;;;;;;;;;5.08;51.23;100523.79;108348;1256;61760;-69
2024/02/02 11:00:13;;;;;;;;;;;;;;;5.12;51.24;100519.35;107727;1262;73730;-68
2024/02/02 11:02:41;;;;;;;;;;;;;;;5.16;51.28;100532.33;107705;1264;71657;-69
2024/02/02 11:05:14;;;;;;;;;;;;;;;5.20;51.32;100527.23;108081;1251;72826;-68
2024/02/02 11:08:09;;;;;;;;;;;;;;;5.24;50.78;100535.34;108277;1251;61091;-67
2024/02/02 11:10:52;;;;;;;;;;;;;;;5.27;50.43;100531.83;108314;1250;61125;-68
2024/02/02 11:13:35;;;;;;;;;;;;;;;5.31;50.53;100530.36;108280;1251;74588;-68
2024/02/02 11:16:21;;;;;;;;;;;;;;;5.35;50.67;100533.92;108211;1258;72910;-68
2024/02/02 11:19:01;;;;;;;;;;;;;;;5.37;50.09;100530.54;108230;1251;72829;-68
2024/02/02 11:21:42;;;;;;;;;;;;;;;5.36;49.25;100534.29;108247;1254;61151;-70
2024/02/02 11:24:21;;;;;;;;;;;;;;;5.33;48.36;100543.98;108263;1251;61087;-69
2024/02/02 11:27:09;;;;;;;;;;;;;;;5.25;48.27;100538.14;108355;1256;73224;-71
2024/02/02 11:29:43;;;;;;;;;;;;;;;5.22;48.44;100554.15;108342;1256;72905;-68
2024/02/02 11:32:23;;;;;;;;;;;;;;;5.24;48.42;100543.41;108252;1251;72747;-70
2024/02/02 11:34:58;;;;;;;;;;;;;;;5.27;48.29;100540.64;108307;1251;61285;-69
2024/02/02 11:37:32;;;;;;;;;;;;;;;5.27;48.15;100545.03;108330;1257;61068;-71
2024/02/02 11:40:06;;;;;;;;;;;;;;;5.22;48.58;100541.30;108376;1251;74749;-71
2024/02/02 11:42:37;;;;;;;;;;;;;;;5.24;49.09;100541.08;108285;1251;71334;-72
2024/02/02 11:45:10;;;;;;;;;;;;;;;5.26;49.14;100539.95;108415;1255;72862;-69
2024/02/02 11:47:47;;;;;;;;;;;;;;;5.25;48.56;100560.60;108323;1251;61208;-68
2024/02/02 11:50:17;;;;;;;;;;;;;;;5.24;47.91;100556.12;108366;1256;61071;-70
2024/02/02 11:52:47;;;;;;;;;;;;;;;5.23;48.32;100545.17;108283;1251;74802;-69
2024/02/02 11:55:16;;;;;;;;;;;;;;;5.20;48.41;100547.08;108343;1251;72895;-70
2024/02/02 11:57:53;;;;;;;;;;;;;;;5.15;47.51;100554.38;108348;1251;74704;-68
2024/02/02 12:00:50;;;;;;;;;;;;;;;5.11;47.52;100552.67;108396;1251;61243;-69
2024/02/02 12:03:41;;;;;;;;;;;;;;;5.14;47.80;100549.22;108178;1256;62209;-69
2024/02/02 12:06:11;;;;;;;;;;;;;;;5.25;47.47;100548.48;108288;1251;74725;-68
2024/02/02 12:08:42;;;;;;;;;;;;;;;5.37;46.90;100548.98;108230;1259;74345;-67
2024/02/02 12:11:10;;;;;;;;;;;;;;;5.46;46.76;100553.02;108231;1254;72812;-68
2024/02/02 12:13:38;;;;;;;;;;;;;;;5.50;46.44;100544.02;108201;1251;61087;-68
2024/02/02 12:16:06;;;;;;;;;;;;;;;5.56;46.19;100536.98;108204;1251;61116;-70
2024/02/02 12:18:36;;;;;;;;;;;;;;;5.64;46.45;100541.71;108366;1250;76261;-71
2024/02/02 12:21:12;;;;;;;;;;;;;;;5.72;46.87;100543.60;108312;1251;72162;-69
2024/02/02 12:23:40;;;;;;;;;;;;;;;5.81;47.06;100540.14;108342;1257;74854;-69
2024/02/02 12:26:08;;;;;;;;;;;;;;;5.88;46.72;100540.89;108277;1254;61431;-70
2024/02/02 12:28:36;;;;;;;;;;;;;;;5.89;46.54;100548.70;108390;1251;61136;-69
2024/02/02 12:31:04;;;;;;;;;;;;;;;5.84;46.58;100543.52;108339;1251;74655;-68
2024/02/02 12:33:31;;;;;;;;;;;;;;;5.76;46.94;100545.84;108301;1251;72898;-68
2024/02/02 12:35:59;;;;;;;;;;;;;;;5.67;47.12;100542.20;108278;1256;73082;-70
2024/02/02 12:38:38;;;;;;;;;;;;;;;5.59;47.07;100539.30;108320;1251;61096;-70
2024/02/02 12:41:08;;;;;;;;;;;;;;;5.56;47.04;100531.88;108245;1256;61048;-70
2024/02/02 12:43:36;;;;;;;;;;;;;;;5.53;47.30;100534.08;108296;1251;73681;-68
2024/02/02 12:46:04;;;;;;;;;;;;;;;5.48;47.63;100531.52;108236;1251;74734;-70
2024/02/02 12:48:32;;;;;;;;;;;;;;;5.45;47.93;100533.45;108357;1257;73771;-70
2024/02/02 12:51:00;;;;;;;;;;;;;;;5.37;48.11;100532.23;108369;1251;61137;-71